sensor_id;sensor_type;location;lat;lon;timestamp;P1;durP1;ratioP1;P2;durP2;ratioP2
51515;SDS011;37603;55.614;37.326;2023-03-21T00:01:40;6.0;;;3.9;;
51515;SDS011;37603;55.614;37.326;2023-03-21T00:07:39;6.1;;;3.5;;
51515;SDS011;37603;55.614;37.326;2023-03-21T00:13:37;5.3;;;3.7;;
51515;SDS011;37603;55.614;37.326;2023-03-21T00:19:36;7.5;;;4.0;;
51515;SDS011;37603;55.614;37.326;2023-03-21T00:25:35;8.4;;;3.9;;
51515;SDS011;37603;55.614;37.326;2023-03-21T00:31:34;6.4;;;4.1;;
51515;SDS011;37603;55.614;37.326;2023-03-21T00:37:33;8.8;;;3.8;;
51515;SDS011;37603;55.614;37.326;2023-03-21T00:43:32;8.6;;;4.0;;
51515;SDS011;37603;55.614;37.326;2023-03-21T00:49:31;4.7;;;4.0;;
51515;SDS011;37603;55.614;37.326;2023-03-21T00:55:30;7.6;;;3.8;;
51515;SDS011;37603;55.614;37.326;2023-03-21T01:01:28;5.4;;;3.7;;
51515;SDS011;37603;55.614;37.326;2023-03-21T01:07:27;6.3;;;3.6;;
51515;SDS011;37603;55.614;37.326;2023-03-21T01:13:26;6.1;;;4.0;;
51515;SDS011;37603;55.614;37.326;2023-03-21T01:19:25;6.4;;;4.0;;
51515;SDS011;37603;55.614;37.326;2023-03-21T01:25:24;7.8;;;4.1;;
51515;SDS011;37603;55.614;37.326;2023-03-21T01:31:23;6.4;;;3.8;;
51515;SDS011;37603;55.614;37.326;2023-03-21T01:37:22;7.1;;;3.7;;
51515;SDS011;37603;55.614;37.326;2023-03-21T01:43:22;6.8;;;4.2;;
51515;SDS011;37603;55.614;37.326;2023-03-21T01:49:21;6.7;;;3.9;;
51515;SDS011;37603;55.614;37.326;2023-03-21T01:55:19;5.9;;;4.2;;
51515;SDS011;37603;55.614;37.326;2023-03-21T02:01:17;7.2;;;4.2;;
51515;SDS011;37603;55.614;37.326;2023-03-21T02:07:17;8.0;;;4.0;;
51515;SDS011;37603;55.614;37.326;2023-03-21T02:13:15;7.6;;;4.2;;
51515;SDS011;37603;55.614;37.326;2023-03-21T02:19:23;7.4;;;4.4;;
51515;SDS011;37603;55.614;37.326;2023-03-21T02:31:15;7.7;;;4.2;;
51515;SDS011;37603;55.614;37.326;2023-03-21T02:37:13;6.7;;;4.0;;
51515;SDS011;37603;55.614;37.326;2023-03-21T02:43:12;7.1;;;4.2;;
51515;SDS011;37603;55.614;37.326;2023-03-21T02:49:10;7.6;;;4.7;;
51515;SDS011;37603;55.614;37.326;2023-03-21T02:55:08;8.6;;;4.9;;
51515;SDS011;37603;55.614;37.326;2023-03-21T03:01:06;7.2;;;5.0;;
51515;SDS011;37603;55.614;37.326;2023-03-21T03:07:10;7.5;;;5.6;;
51515;SDS011;37603;55.614;37.326;2023-03-21T03:13:07;10.4;;;6.1;;
51515;SDS011;37603;55.614;37.326;2023-03-21T03:19:03;10.2;;;6.2;;
51515;SDS011;37603;55.614;37.326;2023-03-21T03:25:02;9.9;;;5.9;;
51515;SDS011;37603;55.614;37.326;2023-03-21T03:31:01;9.8;;;5.8;;
51515;SDS011;37603;55.614;37.326;2023-03-21T03:37:00;9.5;;;6.1;;
51515;SDS011;37603;55.614;37.326;2023-03-21T03:42:59;10.5;;;6.4;;
51515;SDS011;37603;55.614;37.326;2023-03-21T03:48:59;10.2;;;6.0;;
51515;SDS011;37603;55.614;37.326;2023-03-21T03:54:56;9.4;;;5.9;;
51515;SDS011;37603;55.614;37.326;2023-03-21T04:00:55;11.8;;;6.7;;
51515;SDS011;37603;55.614;37.326;2023-03-21T04:06:54;10.6;;;6.6;;
51515;SDS011;37603;55.614;37.326;2023-03-21T04:12:53;11.7;;;6.5;;
51515;SDS011;37603;55.614;37.326;2023-03-21T04:18:52;10.0;;;5.9;;
51515;SDS011;37603;55.614;37.326;2023-03-21T04:24:50;11.8;;;6.6;;
51515;SDS011;37603;55.614;37.326;2023-03-21T04:30:49;12.2;;;6.7;;
51515;SDS011;37603;55.614;37.326;2023-03-21T04:36:48;11.9;;;7.1;;
51515;SDS011;37603;55.614;37.326;2023-03-21T04:42:47;10.6;;;6.8;;
51515;SDS011;37603;55.614;37.326;2023-03-21T04:48:46;9.7;;;6.5;;
51515;SDS011;37603;55.614;37.326;2023-03-21T04:54:45;13.9;;;7.9;;
51515;SDS011;37603;55.614;37.326;2023-03-21T05:00:44;10.4;;;7.4;;
51515;SDS011;37603;55.614;37.326;2023-03-21T05:06:43;11.9;;;7.5;;
51515;SDS011;37603;55.614;37.326;2023-03-21T05:12:41;12.0;;;8.0;;
51515;SDS011;37603;55.614;37.326;2023-03-21T05:18:40;15.2;;;7.8;;
51515;SDS011;37603;55.614;37.326;2023-03-21T05:24:39;13.1;;;8.0;;
51515;SDS011;37603;55.614;37.326;2023-03-21T05:30:38;14.9;;;8.2;;
51515;SDS011;37603;55.614;37.326;2023-03-21T05:36:37;12.6;;;8.8;;
51515;SDS011;37603;55.614;37.326;2023-03-21T05:42:36;13.6;;;8.7;;
51515;SDS011;37603;55.614;37.326;2023-03-21T05:48:35;14.3;;;8.5;;
51515;SDS011;37603;55.614;37.326;2023-03-21T05:54:34;12.9;;;8.6;;
51515;SDS011;37603;55.614;37.326;2023-03-21T06:00:33;12.1;;;8.8;;
51515;SDS011;37603;55.614;37.326;2023-03-21T06:06:32;13.7;;;8.9;;
51515;SDS011;37603;55.614;37.326;2023-03-21T06:18:30;13.9;;;9.1;;
51515;SDS011;37603;55.614;37.326;2023-03-21T06:24:28;14.9;;;9.5;;
51515;SDS011;37603;55.614;37.326;2023-03-21T06:30:27;12.2;;;9.4;;
51515;SDS011;37603;55.614;37.326;2023-03-21T06:36:26;14.4;;;9.4;;
51515;SDS011;37603;55.614;37.326;2023-03-21T06:42:25;13.7;;;8.8;;
51515;SDS011;37603;55.614;37.326;2023-03-21T06:48:24;12.9;;;8.5;;
51515;SDS011;37603;55.614;37.326;2023-03-21T06:54:23;15.8;;;9.3;;
51515;SDS011;37603;55.614;37.326;2023-03-21T07:00:23;14.6;;;9.2;;
51515;SDS011;37603;55.614;37.326;2023-03-21T07:06:22;15.7;;;10.0;;
51515;SDS011;37603;55.614;37.326;2023-03-21T07:12:21;14.1;;;9.0;;
51515;SDS011;37603;55.614;37.326;2023-03-21T07:18:20;13.4;;;9.2;;
51515;SDS011;37603;55.614;37.326;2023-03-21T07:24:18;12.0;;;8.9;;
51515;SDS011;37603;55.614;37.326;2023-03-21T07:30:19;13.8;;;9.2;;
51515;SDS011;37603;55.614;37.326;2023-03-21T07:36:17;13.0;;;9.3;;
51515;SDS011;37603;55.614;37.326;2023-03-21T07:42:16;14.9;;;9.3;;
51515;SDS011;37603;55.614;37.326;2023-03-21T07:48:15;12.7;;;8.7;;
51515;SDS011;37603;55.614;37.326;2023-03-21T07:54:14;12.2;;;8.9;;
51515;SDS011;37603;55.614;37.326;2023-03-21T08:00:13;12.5;;;8.5;;
51515;SDS011;37603;55.614;37.326;2023-03-21T08:06:12;10.0;;;7.8;;
51515;SDS011;37603;55.614;37.326;2023-03-21T08:12:11;11.6;;;7.5;;
51515;SDS011;37603;55.614;37.326;2023-03-21T08:18:12;9.8;;;7.4;;
51515;SDS011;37603;55.614;37.326;2023-03-21T08:24:09;7.5;;;6.7;;
51515;SDS011;37603;55.614;37.326;2023-03-21T08:30:09;8.4;;;6.9;;
51515;SDS011;37603;55.614;37.326;2023-03-21T08:36:08;7.4;;;5.9;;
51515;SDS011;37603;55.614;37.326;2023-03-21T08:42:06;8.6;;;6.5;;
51515;SDS011;37603;55.614;37.326;2023-03-21T08:48:05;7.8;;;6.0;;
51515;SDS011;37603;55.614;37.326;2023-03-21T08:54:04;7.4;;;6.0;;
51515;SDS011;37603;55.614;37.326;2023-03-21T09:00:05;7.7;;;5.4;;
51515;SDS011;37603;55.614;37.326;2023-03-21T09:06:03;7.6;;;5.5;;
51515;SDS011;37603;55.614;37.326;2023-03-21T09:12:02;5.3;;;4.7;;
51515;SDS011;37603;55.614;37.326;2023-03-21T09:18:01;6.7;;;5.1;;
51515;SDS011;37603;55.614;37.326;2023-03-21T09:24:00;5.8;;;4.7;;
51515;SDS011;37603;55.614;37.326;2023-03-21T09:29:59;5.6;;;4.1;;
51515;SDS011;37603;55.614;37.326;2023-03-21T09:35:58;5.1;;;3.8;;
51515;SDS011;37603;55.614;37.326;2023-03-21T09:42:02;4.0;;;3.4;;
51515;SDS011;37603;55.614;37.326;2023-03-21T09:47:56;4.3;;;3.3;;
51515;SDS011;37603;55.614;37.326;2023-03-21T09:53:56;4.0;;;3.2;;
51515;SDS011;37603;55.614;37.326;2023-03-21T09:59:55;4.8;;;3.6;;
51515;SDS011;37603;55.614;37.326;2023-03-21T10:05:55;5.4;;;3.7;;
51515;SDS011;37603;55.614;37.326;2023-03-21T10:11:55;4.4;;;3.3;;
51515;SDS011;37603;55.614;37.326;2023-03-21T10:17:54;4.3;;;3.8;;
51515;SDS011;37603;55.614;37.326;2023-03-21T10:23:52;5.3;;;3.9;;
51515;SDS011;37603;55.614;37.326;2023-03-21T10:29:51;4.2;;;3.6;;
51515;SDS011;37603;55.614;37.326;2023-03-21T10:35:50;4.6;;;3.2;;
51515;SDS011;37603;55.614;37.326;2023-03-21T10:47:48;3.4;;;2.9;;
51515;SDS011;37603;55.614;37.326;2023-03-21T10:53:49;3.2;;;2.5;;
51515;SDS011;37603;55.614;37.326;2023-03-21T10:59:48;3.8;;;2.9;;
51515;SDS011;37603;55.614;37.326;2023-03-21T11:05:46;3.4;;;2.9;;
51515;SDS011;37603;55.614;37.326;2023-03-21T11:11:48;4.5;;;3.2;;
51515;SDS011;37603;55.614;37.326;2023-03-21T11:17:44;4.9;;;3.3;;
51515;SDS011;37603;55.614;37.326;2023-03-21T11:23:44;4.8;;;3.1;;
51515;SDS011;37603;55.614;37.326;2023-03-21T11:35:42;3.7;;;2.6;;
51515;SDS011;37603;55.614;37.326;2023-03-21T11:41:41;3.9;;;2.3;;
51515;SDS011;37603;55.614;37.326;2023-03-21T11:47:40;3.0;;;2.4;;
51515;SDS011;37603;55.614;37.326;2023-03-21T11:53:41;2.8;;;2.1;;
51515;SDS011;37603;55.614;37.326;2023-03-21T11:59:40;3.3;;;2.1;;
51515;SDS011;37603;55.614;37.326;2023-03-21T12:05:38;3.7;;;2.4;;
51515;SDS011;37603;55.614;37.326;2023-03-21T12:11:39;3.5;;;2.3;;
51515;SDS011;37603;55.614;37.326;2023-03-21T12:17:38;3.2;;;2.2;;
51515;SDS011;37603;55.614;37.326;2023-03-21T12:23:38;3.7;;;2.2;;
51515;SDS011;37603;55.614;37.326;2023-03-21T12:29:39;2.6;;;2.2;;
51515;SDS011;37603;55.614;37.326;2023-03-21T12:35:37;3.6;;;2.3;;
51515;SDS011;37603;55.614;37.326;2023-03-21T12:41:33;3.0;;;2.3;;
51515;SDS011;37603;55.614;37.326;2023-03-21T12:47:32;3.7;;;2.2;;
51515;SDS011;37603;55.614;37.326;2023-03-21T12:53:35;3.3;;;2.1;;
51515;SDS011;37603;55.614;37.326;2023-03-21T12:59:32;3.1;;;2.5;;
51515;SDS011;37603;55.614;37.326;2023-03-21T13:05:30;4.2;;;2.9;;
51515;SDS011;37603;55.614;37.326;2023-03-21T13:11:29;4.3;;;3.0;;
51515;SDS011;37603;55.614;37.326;2023-03-21T13:17:29;7.6;;;3.5;;
51515;SDS011;37603;55.614;37.326;2023-03-21T13:23:32;6.4;;;3.3;;
51515;SDS011;37603;55.614;37.326;2023-03-21T13:29:27;4.1;;;2.7;;
51515;SDS011;37603;55.614;37.326;2023-03-21T13:35:31;4.6;;;3.1;;
51515;SDS011;37603;55.614;37.326;2023-03-21T13:41:26;5.3;;;3.0;;
51515;SDS011;37603;55.614;37.326;2023-03-21T13:53:23;5.0;;;2.9;;
51515;SDS011;37603;55.614;37.326;2023-03-21T14:05:21;4.5;;;3.0;;
51515;SDS011;37603;55.614;37.326;2023-03-21T14:11:20;5.7;;;2.9;;
51515;SDS011;37603;55.614;37.326;2023-03-21T14:17:21;4.5;;;2.7;;
51515;SDS011;37603;55.614;37.326;2023-03-21T14:23:19;4.9;;;3.0;;
51515;SDS011;37603;55.614;37.326;2023-03-21T14:29:19;7.4;;;3.1;;
51515;SDS011;37603;55.614;37.326;2023-03-21T14:35:17;4.2;;;2.8;;
51515;SDS011;37603;55.614;37.326;2023-03-21T14:41:18;4.6;;;2.9;;
51515;SDS011;37603;55.614;37.326;2023-03-21T14:47:16;5.3;;;3.0;;
51515;SDS011;37603;55.614;37.326;2023-03-21T14:53:15;5.0;;;3.0;;
51515;SDS011;37603;55.614;37.326;2023-03-21T14:59:13;5.8;;;3.3;;
51515;SDS011;37603;55.614;37.326;2023-03-21T15:05:14;4.1;;;2.9;;
51515;SDS011;37603;55.614;37.326;2023-03-21T15:11:12;4.9;;;3.2;;
51515;SDS011;37603;55.614;37.326;2023-03-21T15:17:11;7.8;;;3.5;;
51515;SDS011;37603;55.614;37.326;2023-03-21T15:23:11;5.9;;;3.2;;
51515;SDS011;37603;55.614;37.326;2023-03-21T15:29:09;6.8;;;3.2;;
51515;SDS011;37603;55.614;37.326;2023-03-21T15:35:12;5.4;;;3.4;;
51515;SDS011;37603;55.614;37.326;2023-03-21T15:41:16;6.6;;;3.4;;
51515;SDS011;37603;55.614;37.326;2023-03-21T15:47:07;9.6;;;3.8;;
51515;SDS011;37603;55.614;37.326;2023-03-21T15:53:06;6.7;;;4.1;;
51515;SDS011;37603;55.614;37.326;2023-03-21T15:59:04;6.6;;;3.7;;
51515;SDS011;37603;55.614;37.326;2023-03-21T16:11:06;6.9;;;3.9;;
51515;SDS011;37603;55.614;37.326;2023-03-21T16:17:02;5.2;;;3.2;;
51515;SDS011;37603;55.614;37.326;2023-03-21T16:23:01;7.4;;;3.8;;
51515;SDS011;37603;55.614;37.326;2023-03-21T16:29:00;7.3;;;3.6;;
51515;SDS011;37603;55.614;37.326;2023-03-21T16:34:59;5.1;;;3.4;;
51515;SDS011;37603;55.614;37.326;2023-03-21T16:40:58;6.8;;;3.5;;
51515;SDS011;37603;55.614;37.326;2023-03-21T16:46:57;5.5;;;3.7;;
51515;SDS011;37603;55.614;37.326;2023-03-21T16:52:56;6.8;;;3.8;;
51515;SDS011;37603;55.614;37.326;2023-03-21T16:58:55;6.7;;;3.8;;
51515;SDS011;37603;55.614;37.326;2023-03-21T17:04:54;5.7;;;3.9;;
51515;SDS011;37603;55.614;37.326;2023-03-21T17:10:54;6.1;;;4.1;;
51515;SDS011;37603;55.614;37.326;2023-03-21T17:16:52;7.0;;;4.4;;
51515;SDS011;37603;55.614;37.326;2023-03-21T17:22:51;8.2;;;5.5;;
51515;SDS011;37603;55.614;37.326;2023-03-21T17:28:50;10.9;;;6.1;;
51515;SDS011;37603;55.614;37.326;2023-03-21T17:34:49;10.5;;;5.8;;
51515;SDS011;37603;55.614;37.326;2023-03-21T17:40:48;8.9;;;6.4;;
51515;SDS011;37603;55.614;37.326;2023-03-21T17:46:48;11.0;;;7.5;;
51515;SDS011;37603;55.614;37.326;2023-03-21T17:52:47;14.4;;;9.9;;
51515;SDS011;37603;55.614;37.326;2023-03-21T17:58:46;15.4;;;11.7;;
51515;SDS011;37603;55.614;37.326;2023-03-21T18:04:45;18.1;;;13.1;;
51515;SDS011;37603;55.614;37.326;2023-03-21T18:10:44;17.5;;;13.9;;
51515;SDS011;37603;55.614;37.326;2023-03-21T18:16:43;19.2;;;15.1;;
51515;SDS011;37603;55.614;37.326;2023-03-21T18:22:42;20.2;;;15.2;;
51515;SDS011;37603;55.614;37.326;2023-03-21T18:28:41;20.7;;;16.1;;
51515;SDS011;37603;55.614;37.326;2023-03-21T18:34:40;25.1;;;18.7;;
51515;SDS011;37603;55.614;37.326;2023-03-21T18:40:39;24.6;;;19.4;;
51515;SDS011;37603;55.614;37.326;2023-03-21T18:46:38;25.9;;;20.7;;
51515;SDS011;37603;55.614;37.326;2023-03-21T18:52:37;28.4;;;20.5;;
51515;SDS011;37603;55.614;37.326;2023-03-21T18:58:36;31.2;;;22.6;;
51515;SDS011;37603;55.614;37.326;2023-03-21T19:04:35;29.6;;;21.8;;
51515;SDS011;37603;55.614;37.326;2023-03-21T19:10:34;28.1;;;20.0;;
51515;SDS011;37603;55.614;37.326;2023-03-21T19:16:33;29.3;;;19.9;;
51515;SDS011;37603;55.614;37.326;2023-03-21T19:22:32;28.6;;;20.3;;
51515;SDS011;37603;55.614;37.326;2023-03-21T19:28:31;25.6;;;19.7;;
51515;SDS011;37603;55.614;37.326;2023-03-21T19:34:30;26.4;;;20.0;;
51515;SDS011;37603;55.614;37.326;2023-03-21T19:40:29;26.1;;;19.6;;
51515;SDS011;37603;55.614;37.326;2023-03-21T19:46:28;35.4;;;23.0;;
51515;SDS011;37603;55.614;37.326;2023-03-21T19:52:27;51.0;;;28.7;;
51515;SDS011;37603;55.614;37.326;2023-03-21T19:58:27;27.6;;;19.3;;
51515;SDS011;37603;55.614;37.326;2023-03-21T20:04:25;22.9;;;17.3;;
51515;SDS011;37603;55.614;37.326;2023-03-21T20:10:24;23.5;;;16.6;;
51515;SDS011;37603;55.614;37.326;2023-03-21T20:16:23;23.0;;;16.5;;
51515;SDS011;37603;55.614;37.326;2023-03-21T20:22:22;22.0;;;16.6;;
51515;SDS011;37603;55.614;37.326;2023-03-21T20:28:20;20.8;;;16.2;;
51515;SDS011;37603;55.614;37.326;2023-03-21T20:34:19;21.9;;;16.1;;
51515;SDS011;37603;55.614;37.326;2023-03-21T20:40:19;20.1;;;15.0;;
51515;SDS011;37603;55.614;37.326;2023-03-21T20:46:17;19.6;;;14.6;;
51515;SDS011;37603;55.614;37.326;2023-03-21T20:52:16;17.1;;;13.4;;
51515;SDS011;37603;55.614;37.326;2023-03-21T20:58:15;17.3;;;12.1;;
51515;SDS011;37603;55.614;37.326;2023-03-21T21:04:14;17.8;;;12.6;;
51515;SDS011;37603;55.614;37.326;2023-03-21T21:10:15;15.6;;;11.7;;
51515;SDS011;37603;55.614;37.326;2023-03-21T21:16:12;13.9;;;11.3;;
51515;SDS011;37603;55.614;37.326;2023-03-21T21:22:11;15.0;;;12.0;;
51515;SDS011;37603;55.614;37.326;2023-03-21T21:28:10;15.5;;;10.9;;
51515;SDS011;37603;55.614;37.326;2023-03-21T21:34:09;16.2;;;10.9;;
51515;SDS011;37603;55.614;37.326;2023-03-21T21:40:08;15.2;;;11.0;;
51515;SDS011;37603;55.614;37.326;2023-03-21T21:46:07;14.9;;;11.3;;
51515;SDS011;37603;55.614;37.326;2023-03-21T21:52:06;14.4;;;11.2;;
51515;SDS011;37603;55.614;37.326;2023-03-21T21:58:05;15.0;;;10.8;;
51515;SDS011;37603;55.614;37.326;2023-03-21T22:04:04;15.3;;;10.9;;
51515;SDS011;37603;55.614;37.326;2023-03-21T22:10:03;15.1;;;11.4;;
51515;SDS011;37603;55.614;37.326;2023-03-21T22:16:02;15.0;;;11.0;;
51515;SDS011;37603;55.614;37.326;2023-03-21T22:22:01;15.6;;;10.8;;
51515;SDS011;37603;55.614;37.326;2023-03-21T22:27:59;15.0;;;10.4;;
51515;SDS011;37603;55.614;37.326;2023-03-21T22:33:58;14.7;;;10.5;;
51515;SDS011;37603;55.614;37.326;2023-03-21T22:45:56;16.6;;;11.3;;
51515;SDS011;37603;55.614;37.326;2023-03-21T22:51:55;15.7;;;11.3;;
51515;SDS011;37603;55.614;37.326;2023-03-21T22:57:54;15.4;;;11.2;;
51515;SDS011;37603;55.614;37.326;2023-03-21T23:03:54;15.5;;;11.1;;
51515;SDS011;37603;55.614;37.326;2023-03-21T23:09:54;16.0;;;11.2;;
51515;SDS011;37603;55.614;37.326;2023-03-21T23:15:51;15.6;;;11.1;;
51515;SDS011;37603;55.614;37.326;2023-03-21T23:21:50;15.8;;;10.9;;
51515;SDS011;37603;55.614;37.326;2023-03-21T23:27:49;14.4;;;11.2;;
51515;SDS011;37603;55.614;37.326;2023-03-21T23:33:48;14.0;;;10.9;;
51515;SDS011;37603;55.614;37.326;2023-03-21T23:39:47;16.7;;;11.3;;
51515;SDS011;37603;55.614;37.326;2023-03-21T23:45:46;15.8;;;11.1;;
51515;SDS011;37603;55.614;37.326;2023-03-21T23:51:45;17.8;;;11.6;;
51515;SDS011;37603;55.614;37.326;2023-03-21T23:57:43;15.9;;;11.3;;
